Indianapolis, Indiana
Traffic Map
Current Weather Conditions
Indianapolis, Indiana
Overcast
Overcast
39°
Feels Like: 32°
Wind Chill: 32° Ceiling: 2300
Heat Index: 39° Visibility: 10mi
Dew Point: 30° Wind: 10mph
Humidity: 70% Direction: 360° (N)
Pressure: 30.24in Gusts: 0mph
Raw Report DataKIND 191454Z 36009KT 10SM OVC023 04/M01 A3024 RMK AO2 SLP245 T00391011 53045
Traffic Incident Summary
Active as of:
Severity:
Category:
InformationThere was an issue retrieving the traffic information for this location. Please try a different location or try again shortly.
Advertisements